sensor_id;sensor_type;location;lat;lon;timestamp;P1;durP1;ratioP1;P2;durP2;ratioP2
26319;SDS011;14024;52.226;5.200;2023-07-16T00:02:17;6.70;;;2.88;;
26319;SDS011;14024;52.226;5.200;2023-07-16T00:04:43;11.77;;;3.50;;
26319;SDS011;14024;52.226;5.200;2023-07-16T00:07:09;12.60;;;3.08;;
26319;SDS011;14024;52.226;5.200;2023-07-16T00:09:35;11.40;;;3.47;;
26319;SDS011;14024;52.226;5.200;2023-07-16T00:12:02;13.25;;;3.45;;
26319;SDS011;14024;52.226;5.200;2023-07-16T00:14:28;17.45;;;3.50;;
26319;SDS011;14024;52.226;5.200;2023-07-16T00:16:54;18.08;;;3.50;;
26319;SDS011;14024;52.226;5.200;2023-07-16T00:19:20;12.70;;;3.65;;
26319;SDS011;14024;52.226;5.200;2023-07-16T00:21:46;20.58;;;3.47;;
26319;SDS011;14024;52.226;5.200;2023-07-16T00:24:12;11.57;;;3.75;;
26319;SDS011;14024;52.226;5.200;2023-07-16T00:26:38;10.95;;;3.50;;
26319;SDS011;14024;52.226;5.200;2023-07-16T00:29:04;14.20;;;3.50;;
26319;SDS011;14024;52.226;5.200;2023-07-16T00:31:30;12.07;;;2.97;;
26319;SDS011;14024;52.226;5.200;2023-07-16T00:33:56;13.55;;;3.70;;
26319;SDS011;14024;52.226;5.200;2023-07-16T00:36:22;13.48;;;3.20;;
26319;SDS011;14024;52.226;5.200;2023-07-16T00:38:48;13.27;;;3.53;;
26319;SDS011;14024;52.226;5.200;2023-07-16T00:41:15;15.48;;;4.13;;
26319;SDS011;14024;52.226;5.200;2023-07-16T00:43:41;9.98;;;3.80;;
26319;SDS011;14024;52.226;5.200;2023-07-16T00:46:07;8.40;;;3.33;;
26319;SDS011;14024;52.226;5.200;2023-07-16T00:48:34;11.55;;;3.53;;
26319;SDS011;14024;52.226;5.200;2023-07-16T00:51:00;12.10;;;3.90;;
26319;SDS011;14024;52.226;5.200;2023-07-16T00:53:27;11.45;;;3.50;;
26319;SDS011;14024;52.226;5.200;2023-07-16T00:55:53;10.85;;;3.08;;
26319;SDS011;14024;52.226;5.200;2023-07-16T00:58:19;11.50;;;3.72;;
26319;SDS011;14024;52.226;5.200;2023-07-16T01:00:45;13.32;;;3.75;;
26319;SDS011;14024;52.226;5.200;2023-07-16T01:03:12;15.40;;;4.20;;
26319;SDS011;14024;52.226;5.200;2023-07-16T01:08:16;12.75;;;4.35;;
26319;SDS011;14024;52.226;5.200;2023-07-16T01:10:44;9.70;;;3.90;;
26319;SDS011;14024;52.226;5.200;2023-07-16T01:13:10;11.57;;;4.10;;
26319;SDS011;14024;52.226;5.200;2023-07-16T01:15:37;15.63;;;3.78;;
26319;SDS011;14024;52.226;5.200;2023-07-16T01:18:03;9.63;;;3.95;;
26319;SDS011;14024;52.226;5.200;2023-07-16T01:20:29;12.35;;;3.53;;
26319;SDS011;14024;52.226;5.200;2023-07-16T01:25:29;13.90;;;4.55;;
26319;SDS011;14024;52.226;5.200;2023-07-16T01:28:04;9.68;;;4.03;;
26319;SDS011;14024;52.226;5.200;2023-07-16T01:30:31;9.95;;;3.70;;
26319;SDS011;14024;52.226;5.200;2023-07-16T01:32:57;15.52;;;4.93;;
26319;SDS011;14024;52.226;5.200;2023-07-16T01:35:24;11.25;;;4.55;;
26319;SDS011;14024;52.226;5.200;2023-07-16T01:37:51;13.07;;;4.63;;
26319;SDS011;14024;52.226;5.200;2023-07-16T01:40:17;17.20;;;4.65;;
26319;SDS011;14024;52.226;5.200;2023-07-16T01:42:43;14.25;;;4.38;;
26319;SDS011;14024;52.226;5.200;2023-07-16T01:45:09;11.57;;;4.43;;
26319;SDS011;14024;52.226;5.200;2023-07-16T01:47:49;14.77;;;4.45;;
26319;SDS011;14024;52.226;5.200;2023-07-16T01:50:18;16.00;;;4.18;;
26319;SDS011;14024;52.226;5.200;2023-07-16T01:52:44;11.35;;;4.70;;
26319;SDS011;14024;52.226;5.200;2023-07-16T01:55:10;13.32;;;4.38;;
26319;SDS011;14024;52.226;5.200;2023-07-16T01:57:36;13.27;;;4.18;;
26319;SDS011;14024;52.226;5.200;2023-07-16T02:00:02;16.13;;;4.25;;
26319;SDS011;14024;52.226;5.200;2023-07-16T02:02:28;13.05;;;4.60;;
26319;SDS011;14024;52.226;5.200;2023-07-16T02:04:54;16.17;;;4.45;;
26319;SDS011;14024;52.226;5.200;2023-07-16T02:07:20;12.40;;;4.60;;
26319;SDS011;14024;52.226;5.200;2023-07-16T02:09:46;13.02;;;4.40;;
26319;SDS011;14024;52.226;5.200;2023-07-16T02:12:12;19.75;;;5.90;;
26319;SDS011;14024;52.226;5.200;2023-07-16T02:14:38;13.07;;;5.28;;
26319;SDS011;14024;52.226;5.200;2023-07-16T02:17:04;13.63;;;5.05;;
26319;SDS011;14024;52.226;5.200;2023-07-16T02:19:30;13.45;;;5.18;;
26319;SDS011;14024;52.226;5.200;2023-07-16T02:21:56;19.23;;;5.57;;
26319;SDS011;14024;52.226;5.200;2023-07-16T02:24:22;15.05;;;5.05;;
26319;SDS011;14024;52.226;5.200;2023-07-16T02:26:48;17.98;;;5.30;;
26319;SDS011;14024;52.226;5.200;2023-07-16T02:29:14;14.38;;;5.25;;
26319;SDS011;14024;52.226;5.200;2023-07-16T02:31:40;14.55;;;5.43;;
26319;SDS011;14024;52.226;5.200;2023-07-16T02:34:09;17.80;;;5.03;;
26319;SDS011;14024;52.226;5.200;2023-07-16T02:36:35;19.35;;;5.82;;
26319;SDS011;14024;52.226;5.200;2023-07-16T02:39:01;18.33;;;5.50;;
26319;SDS011;14024;52.226;5.200;2023-07-16T02:41:27;18.00;;;5.85;;
26319;SDS011;14024;52.226;5.200;2023-07-16T02:44:03;14.75;;;5.68;;
26319;SDS011;14024;52.226;5.200;2023-07-16T02:46:30;17.67;;;5.55;;
26319;SDS011;14024;52.226;5.200;2023-07-16T02:48:56;15.68;;;5.45;;
26319;SDS011;14024;52.226;5.200;2023-07-16T02:51:22;16.60;;;5.47;;
26319;SDS011;14024;52.226;5.200;2023-07-16T02:53:48;19.45;;;5.90;;
26319;SDS011;14024;52.226;5.200;2023-07-16T02:56:14;20.20;;;5.75;;
26319;SDS011;14024;52.226;5.200;2023-07-16T02:58:41;27.83;;;7.97;;
26319;SDS011;14024;52.226;5.200;2023-07-16T03:01:07;15.02;;;5.78;;
26319;SDS011;14024;52.226;5.200;2023-07-16T03:03:33;16.88;;;5.95;;
26319;SDS011;14024;52.226;5.200;2023-07-16T03:06:00;18.38;;;5.47;;
26319;SDS011;14024;52.226;5.200;2023-07-16T03:08:26;19.52;;;6.05;;
26319;SDS011;14024;52.226;5.200;2023-07-16T03:10:55;11.95;;;5.32;;
26319;SDS011;14024;52.226;5.200;2023-07-16T03:13:21;17.77;;;6.38;;
26319;SDS011;14024;52.226;5.200;2023-07-16T03:15:47;16.98;;;6.15;;
26319;SDS011;14024;52.226;5.200;2023-07-16T03:18:13;15.15;;;5.63;;
26319;SDS011;14024;52.226;5.200;2023-07-16T03:20:39;15.27;;;5.82;;
26319;SDS011;14024;52.226;5.200;2023-07-16T03:23:05;20.63;;;5.97;;
26319;SDS011;14024;52.226;5.200;2023-07-16T03:25:31;16.85;;;5.50;;
26319;SDS011;14024;52.226;5.200;2023-07-16T03:27:57;16.42;;;5.47;;
26319;SDS011;14024;52.226;5.200;2023-07-16T03:30:23;13.25;;;5.32;;
26319;SDS011;14024;52.226;5.200;2023-07-16T03:32:49;18.05;;;5.18;;
26319;SDS011;14024;52.226;5.200;2023-07-16T03:35:15;15.85;;;5.50;;
26319;SDS011;14024;52.226;5.200;2023-07-16T03:37:41;18.65;;;5.10;;
26319;SDS011;14024;52.226;5.200;2023-07-16T03:40:14;14.07;;;5.22;;
26319;SDS011;14024;52.226;5.200;2023-07-16T03:42:40;12.60;;;5.03;;
26319;SDS011;14024;52.226;5.200;2023-07-16T03:45:07;16.38;;;5.10;;
26319;SDS011;14024;52.226;5.200;2023-07-16T03:47:33;14.65;;;4.82;;
26319;SDS011;14024;52.226;5.200;2023-07-16T03:49:59;13.23;;;5.82;;
26319;SDS011;14024;52.226;5.200;2023-07-16T03:52:25;15.52;;;4.88;;
26319;SDS011;14024;52.226;5.200;2023-07-16T03:54:51;22.13;;;6.60;;
26319;SDS011;14024;52.226;5.200;2023-07-16T03:57:17;15.52;;;5.07;;
26319;SDS011;14024;52.226;5.200;2023-07-16T03:59:43;15.00;;;5.18;;
26319;SDS011;14024;52.226;5.200;2023-07-16T04:02:09;14.82;;;5.78;;
26319;SDS011;14024;52.226;5.200;2023-07-16T04:04:35;14.95;;;5.65;;
26319;SDS011;14024;52.226;5.200;2023-07-16T04:07:01;15.18;;;5.45;;
26319;SDS011;14024;52.226;5.200;2023-07-16T04:09:27;12.23;;;4.90;;
26319;SDS011;14024;52.226;5.200;2023-07-16T04:11:53;16.90;;;5.68;;
26319;SDS011;14024;52.226;5.200;2023-07-16T04:14:19;18.83;;;6.53;;
26319;SDS011;14024;52.226;5.200;2023-07-16T04:16:45;11.80;;;5.60;;
26319;SDS011;14024;52.226;5.200;2023-07-16T04:19:11;14.50;;;5.03;;
26319;SDS011;14024;52.226;5.200;2023-07-16T04:21:37;19.23;;;6.50;;
26319;SDS011;14024;52.226;5.200;2023-07-16T04:24:04;15.15;;;5.18;;
26319;SDS011;14024;52.226;5.200;2023-07-16T04:26:30;21.83;;;6.05;;
26319;SDS011;14024;52.226;5.200;2023-07-16T04:28:56;16.90;;;4.97;;
26319;SDS011;14024;52.226;5.200;2023-07-16T04:31:23;18.80;;;6.40;;
26319;SDS011;14024;52.226;5.200;2023-07-16T04:33:49;18.23;;;5.72;;
26319;SDS011;14024;52.226;5.200;2023-07-16T04:36:15;17.35;;;5.78;;
26319;SDS011;14024;52.226;5.200;2023-07-16T04:38:41;12.40;;;5.70;;
26319;SDS011;14024;52.226;5.200;2023-07-16T04:41:07;13.25;;;6.10;;
26319;SDS011;14024;52.226;5.200;2023-07-16T04:43:33;19.88;;;5.88;;
26319;SDS011;14024;52.226;5.200;2023-07-16T04:45:59;11.43;;;5.43;;
26319;SDS011;14024;52.226;5.200;2023-07-16T04:48:26;14.63;;;5.53;;
26319;SDS011;14024;52.226;5.200;2023-07-16T04:50:52;16.27;;;5.75;;
26319;SDS011;14024;52.226;5.200;2023-07-16T04:53:18;15.77;;;7.05;;
26319;SDS011;14024;52.226;5.200;2023-07-16T04:55:44;16.08;;;5.93;;
26319;SDS011;14024;52.226;5.200;2023-07-16T04:58:14;14.82;;;6.82;;
26319;SDS011;14024;52.226;5.200;2023-07-16T05:00:40;14.48;;;6.25;;
26319;SDS011;14024;52.226;5.200;2023-07-16T05:03:06;15.10;;;5.70;;
26319;SDS011;14024;52.226;5.200;2023-07-16T05:05:32;13.60;;;5.93;;
26319;SDS011;14024;52.226;5.200;2023-07-16T05:07:59;15.80;;;6.55;;
26319;SDS011;14024;52.226;5.200;2023-07-16T05:10:26;14.68;;;6.47;;
26319;SDS011;14024;52.226;5.200;2023-07-16T05:12:52;22.40;;;6.80;;
26319;SDS011;14024;52.226;5.200;2023-07-16T05:15:18;16.25;;;6.95;;
26319;SDS011;14024;52.226;5.200;2023-07-16T05:17:44;15.35;;;6.85;;
26319;SDS011;14024;52.226;5.200;2023-07-16T05:20:10;13.80;;;6.53;;
26319;SDS011;14024;52.226;5.200;2023-07-16T05:22:36;16.10;;;6.10;;
26319;SDS011;14024;52.226;5.200;2023-07-16T05:25:02;17.15;;;6.63;;
26319;SDS011;14024;52.226;5.200;2023-07-16T05:27:28;15.80;;;6.43;;
26319;SDS011;14024;52.226;5.200;2023-07-16T05:29:54;16.48;;;6.55;;
26319;SDS011;14024;52.226;5.200;2023-07-16T05:32:21;17.25;;;6.05;;
26319;SDS011;14024;52.226;5.200;2023-07-16T05:34:47;15.43;;;6.43;;
26319;SDS011;14024;52.226;5.200;2023-07-16T05:37:13;16.33;;;6.03;;
26319;SDS011;14024;52.226;5.200;2023-07-16T05:39:39;16.33;;;6.30;;
26319;SDS011;14024;52.226;5.200;2023-07-16T05:42:05;17.42;;;6.15;;
26319;SDS011;14024;52.226;5.200;2023-07-16T05:44:31;13.10;;;6.60;;
26319;SDS011;14024;52.226;5.200;2023-07-16T05:46:57;16.40;;;6.88;;
26319;SDS011;14024;52.226;5.200;2023-07-16T05:49:23;12.43;;;5.72;;
26319;SDS011;14024;52.226;5.200;2023-07-16T05:51:50;15.02;;;7.13;;
26319;SDS011;14024;52.226;5.200;2023-07-16T05:54:16;25.63;;;6.07;;
26319;SDS011;14024;52.226;5.200;2023-07-16T05:56:42;13.07;;;6.70;;
26319;SDS011;14024;52.226;5.200;2023-07-16T05:59:09;21.02;;;6.05;;
26319;SDS011;14024;52.226;5.200;2023-07-16T06:01:35;13.57;;;7.30;;
26319;SDS011;14024;52.226;5.200;2023-07-16T06:04:01;21.23;;;6.28;;
26319;SDS011;14024;52.226;5.200;2023-07-16T06:06:27;13.40;;;6.55;;
26319;SDS011;14024;52.226;5.200;2023-07-16T06:08:54;13.13;;;6.13;;
26319;SDS011;14024;52.226;5.200;2023-07-16T06:11:20;20.92;;;6.63;;
26319;SDS011;14024;52.226;5.200;2023-07-16T06:13:46;19.38;;;6.80;;
26319;SDS011;14024;52.226;5.200;2023-07-16T06:16:12;15.50;;;6.72;;
26319;SDS011;14024;52.226;5.200;2023-07-16T06:18:38;14.70;;;6.15;;
26319;SDS011;14024;52.226;5.200;2023-07-16T06:21:04;18.27;;;6.28;;
26319;SDS011;14024;52.226;5.200;2023-07-16T06:23:30;16.92;;;6.57;;
26319;SDS011;14024;52.226;5.200;2023-07-16T06:25:56;16.38;;;7.00;;
26319;SDS011;14024;52.226;5.200;2023-07-16T06:28:22;19.30;;;6.90;;
26319;SDS011;14024;52.226;5.200;2023-07-16T06:30:49;14.48;;;5.97;;
26319;SDS011;14024;52.226;5.200;2023-07-16T06:33:17;19.75;;;7.30;;
26319;SDS011;14024;52.226;5.200;2023-07-16T06:35:44;21.02;;;8.00;;
26319;SDS011;14024;52.226;5.200;2023-07-16T06:38:11;18.45;;;7.03;;
26319;SDS011;14024;52.226;5.200;2023-07-16T06:40:37;15.45;;;6.43;;
26319;SDS011;14024;52.226;5.200;2023-07-16T06:43:03;17.33;;;6.57;;
26319;SDS011;14024;52.226;5.200;2023-07-16T06:45:29;17.42;;;7.47;;
26319;SDS011;14024;52.226;5.200;2023-07-16T06:47:55;14.52;;;7.00;;
26319;SDS011;14024;52.226;5.200;2023-07-16T06:50:21;21.17;;;7.43;;
26319;SDS011;14024;52.226;5.200;2023-07-16T06:52:47;17.02;;;7.60;;
26319;SDS011;14024;52.226;5.200;2023-07-16T06:55:13;16.88;;;7.05;;
26319;SDS011;14024;52.226;5.200;2023-07-16T06:57:39;25.23;;;6.88;;
26319;SDS011;14024;52.226;5.200;2023-07-16T07:00:06;21.42;;;7.63;;
26319;SDS011;14024;52.226;5.200;2023-07-16T07:02:35;17.52;;;6.40;;
26319;SDS011;14024;52.226;5.200;2023-07-16T07:05:03;20.02;;;7.38;;
26319;SDS011;14024;52.226;5.200;2023-07-16T07:07:29;15.65;;;7.10;;
26319;SDS011;14024;52.226;5.200;2023-07-16T07:09:55;21.83;;;7.75;;
26319;SDS011;14024;52.226;5.200;2023-07-16T07:12:21;16.50;;;6.82;;
26319;SDS011;14024;52.226;5.200;2023-07-16T07:14:47;14.48;;;7.10;;
26319;SDS011;14024;52.226;5.200;2023-07-16T07:17:14;15.10;;;6.47;;
26319;SDS011;14024;52.226;5.200;2023-07-16T07:19:41;19.38;;;7.18;;
26319;SDS011;14024;52.226;5.200;2023-07-16T07:22:07;22.33;;;7.40;;
26319;SDS011;14024;52.226;5.200;2023-07-16T07:24:33;22.92;;;6.88;;
26319;SDS011;14024;52.226;5.200;2023-07-16T07:26:59;16.35;;;7.22;;
26319;SDS011;14024;52.226;5.200;2023-07-16T07:29:25;14.52;;;6.20;;
26319;SDS011;14024;52.226;5.200;2023-07-16T07:31:52;15.40;;;6.93;;
26319;SDS011;14024;52.226;5.200;2023-07-16T07:34:18;19.92;;;7.13;;
26319;SDS011;14024;52.226;5.200;2023-07-16T07:36:44;19.05;;;7.15;;
26319;SDS011;14024;52.226;5.200;2023-07-16T07:39:10;15.25;;;6.45;;
26319;SDS011;14024;52.226;5.200;2023-07-16T07:41:38;17.25;;;7.88;;
26319;SDS011;14024;52.226;5.200;2023-07-16T07:44:04;15.27;;;6.80;;
26319;SDS011;14024;52.226;5.200;2023-07-16T07:46:30;16.23;;;7.00;;
26319;SDS011;14024;52.226;5.200;2023-07-16T07:48:56;16.92;;;7.72;;
26319;SDS011;14024;52.226;5.200;2023-07-16T07:51:22;16.67;;;7.38;;
26319;SDS011;14024;52.226;5.200;2023-07-16T07:53:49;17.75;;;7.28;;
26319;SDS011;14024;52.226;5.200;2023-07-16T07:56:15;19.05;;;7.07;;
26319;SDS011;14024;52.226;5.200;2023-07-16T07:58:41;19.30;;;7.72;;
26319;SDS011;14024;52.226;5.200;2023-07-16T08:01:07;15.02;;;6.85;;
26319;SDS011;14024;52.226;5.200;2023-07-16T08:03:33;19.38;;;7.53;;
26319;SDS011;14024;52.226;5.200;2023-07-16T08:05:59;16.45;;;7.68;;
26319;SDS011;14024;52.226;5.200;2023-07-16T08:08:25;21.05;;;7.75;;
26319;SDS011;14024;52.226;5.200;2023-07-16T08:10:52;18.42;;;8.07;;
26319;SDS011;14024;52.226;5.200;2023-07-16T08:13:18;17.42;;;6.97;;
26319;SDS011;14024;52.226;5.200;2023-07-16T08:15:44;17.45;;;8.10;;
26319;SDS011;14024;52.226;5.200;2023-07-16T08:18:10;14.63;;;6.70;;
26319;SDS011;14024;52.226;5.200;2023-07-16T08:20:36;15.35;;;7.07;;
26319;SDS011;14024;52.226;5.200;2023-07-16T08:23:02;16.23;;;7.47;;
26319;SDS011;14024;52.226;5.200;2023-07-16T08:25:28;22.70;;;7.93;;
26319;SDS011;14024;52.226;5.200;2023-07-16T08:27:54;17.10;;;8.93;;
26319;SDS011;14024;52.226;5.200;2023-07-16T08:30:21;23.23;;;7.45;;
26319;SDS011;14024;52.226;5.200;2023-07-16T08:32:47;13.60;;;7.18;;
26319;SDS011;14024;52.226;5.200;2023-07-16T08:35:13;21.45;;;7.38;;
26319;SDS011;14024;52.226;5.200;2023-07-16T08:37:43;17.58;;;6.85;;
26319;SDS011;14024;52.226;5.200;2023-07-16T08:40:09;16.88;;;7.03;;
26319;SDS011;14024;52.226;5.200;2023-07-16T08:42:39;14.85;;;6.78;;
26319;SDS011;14024;52.226;5.200;2023-07-16T08:45:06;27.02;;;7.25;;
26319;SDS011;14024;52.226;5.200;2023-07-16T08:47:33;16.88;;;8.18;;
26319;SDS011;14024;52.226;5.200;2023-07-16T08:50:00;18.25;;;8.30;;
26319;SDS011;14024;52.226;5.200;2023-07-16T08:52:27;19.48;;;7.50;;
26319;SDS011;14024;52.226;5.200;2023-07-16T08:54:53;13.55;;;6.80;;
26319;SDS011;14024;52.226;5.200;2023-07-16T08:57:19;22.63;;;8.18;;
26319;SDS011;14024;52.226;5.200;2023-07-16T08:59:47;14.23;;;6.43;;
26319;SDS011;14024;52.226;5.200;2023-07-16T09:02:13;16.30;;;6.47;;
26319;SDS011;14024;52.226;5.200;2023-07-16T09:04:39;17.73;;;7.05;;
26319;SDS011;14024;52.226;5.200;2023-07-16T09:07:05;20.23;;;7.80;;
26319;SDS011;14024;52.226;5.200;2023-07-16T09:09:31;12.77;;;6.28;;
26319;SDS011;14024;52.226;5.200;2023-07-16T09:11:57;19.05;;;7.35;;
26319;SDS011;14024;52.226;5.200;2023-07-16T09:14:23;19.27;;;7.28;;
26319;SDS011;14024;52.226;5.200;2023-07-16T09:16:49;19.55;;;7.43;;
26319;SDS011;14024;52.226;5.200;2023-07-16T09:19:15;18.20;;;6.95;;
26319;SDS011;14024;52.226;5.200;2023-07-16T09:21:45;15.20;;;7.28;;
26319;SDS011;14024;52.226;5.200;2023-07-16T09:24:11;14.85;;;7.55;;
26319;SDS011;14024;52.226;5.200;2023-07-16T09:26:38;16.15;;;7.60;;
26319;SDS011;14024;52.226;5.200;2023-07-16T09:29:07;13.93;;;7.07;;
26319;SDS011;14024;52.226;5.200;2023-07-16T09:31:33;16.88;;;7.43;;
26319;SDS011;14024;52.226;5.200;2023-07-16T09:33:59;16.77;;;7.53;;
26319;SDS011;14024;52.226;5.200;2023-07-16T09:36:25;16.27;;;7.55;;
26319;SDS011;14024;52.226;5.200;2023-07-16T09:38:55;16.95;;;7.20;;
26319;SDS011;14024;52.226;5.200;2023-07-16T09:41:23;15.38;;;6.57;;
26319;SDS011;14024;52.226;5.200;2023-07-16T09:43:49;13.80;;;6.50;;
26319;SDS011;14024;52.226;5.200;2023-07-16T09:46:15;20.27;;;6.93;;
26319;SDS011;14024;52.226;5.200;2023-07-16T09:48:41;14.77;;;6.55;;
26319;SDS011;14024;52.226;5.200;2023-07-16T09:51:07;12.88;;;7.13;;
26319;SDS011;14024;52.226;5.200;2023-07-16T09:53:35;16.48;;;6.88;;
26319;SDS011;14024;52.226;5.200;2023-07-16T09:56:02;19.50;;;7.10;;
26319;SDS011;14024;52.226;5.200;2023-07-16T09:58:29;14.32;;;6.57;;
26319;SDS011;14024;52.226;5.200;2023-07-16T10:00:55;17.02;;;7.70;;
26319;SDS011;14024;52.226;5.200;2023-07-16T10:03:21;15.48;;;7.03;;
26319;SDS011;14024;52.226;5.200;2023-07-16T10:05:47;13.20;;;6.78;;
26319;SDS011;14024;52.226;5.200;2023-07-16T10:08:19;15.75;;;6.88;;
26319;SDS011;14024;52.226;5.200;2023-07-16T10:10:53;15.15;;;7.07;;
26319;SDS011;14024;52.226;5.200;2023-07-16T10:13:22;20.05;;;7.22;;
26319;SDS011;14024;52.226;5.200;2023-07-16T10:15:55;19.23;;;7.43;;
26319;SDS011;14024;52.226;5.200;2023-07-16T10:20:52;15.20;;;6.55;;
26319;SDS011;14024;52.226;5.200;2023-07-16T10:23:18;11.18;;;5.50;;
26319;SDS011;14024;52.226;5.200;2023-07-16T10:26:00;11.98;;;5.47;;
26319;SDS011;14024;52.226;5.200;2023-07-16T10:28:30;12.32;;;5.55;;
26319;SDS011;14024;52.226;5.200;2023-07-16T10:30:56;14.73;;;5.97;;
26319;SDS011;14024;52.226;5.200;2023-07-16T10:33:22;15.45;;;6.65;;
26319;SDS011;14024;52.226;5.200;2023-07-16T10:35:50;11.45;;;6.20;;
26319;SDS011;14024;52.226;5.200;2023-07-16T10:38:16;15.25;;;6.30;;
26319;SDS011;14024;52.226;5.200;2023-07-16T10:40:43;11.30;;;6.30;;
26319;SDS011;14024;52.226;5.200;2023-07-16T10:43:10;12.98;;;6.35;;
26319;SDS011;14024;52.226;5.200;2023-07-16T10:45:36;17.60;;;6.25;;
26319;SDS011;14024;52.226;5.200;2023-07-16T10:48:02;13.38;;;5.78;;
26319;SDS011;14024;52.226;5.200;2023-07-16T10:50:31;13.77;;;6.25;;
26319;SDS011;14024;52.226;5.200;2023-07-16T10:52:58;15.05;;;6.13;;
26319;SDS011;14024;52.226;5.200;2023-07-16T10:55:26;20.58;;;6.65;;
26319;SDS011;14024;52.226;5.200;2023-07-16T10:57:52;18.00;;;6.07;;
26319;SDS011;14024;52.226;5.200;2023-07-16T11:00:19;13.32;;;5.70;;
26319;SDS011;14024;52.226;5.200;2023-07-16T11:02:46;15.20;;;5.28;;
26319;SDS011;14024;52.226;5.200;2023-07-16T11:05:13;12.57;;;5.25;;
26319;SDS011;14024;52.226;5.200;2023-07-16T11:07:49;10.50;;;5.22;;
26319;SDS011;14024;52.226;5.200;2023-07-16T11:10:15;14.07;;;5.22;;
26319;SDS011;14024;52.226;5.200;2023-07-16T11:12:41;12.80;;;4.40;;
26319;SDS011;14024;52.226;5.200;2023-07-16T11:15:08;12.65;;;4.90;;
26319;SDS011;14024;52.226;5.200;2023-07-16T11:17:34;8.63;;;4.55;;
26319;SDS011;14024;52.226;5.200;2023-07-16T11:20:02;10.48;;;4.28;;
26319;SDS011;14024;52.226;5.200;2023-07-16T11:22:30;8.75;;;3.58;;
26319;SDS011;14024;52.226;5.200;2023-07-16T11:24:56;11.85;;;4.38;;
26319;SDS011;14024;52.226;5.200;2023-07-16T11:27:23;9.93;;;3.92;;
26319;SDS011;14024;52.226;5.200;2023-07-16T11:29:53;7.63;;;3.78;;
26319;SDS011;14024;52.226;5.200;2023-07-16T11:32:34;8.52;;;3.63;;
26319;SDS011;14024;52.226;5.200;2023-07-16T11:35:01;11.23;;;3.42;;
26319;SDS011;14024;52.226;5.200;2023-07-16T11:37:28;8.77;;;3.38;;
26319;SDS011;14024;52.226;5.200;2023-07-16T11:39:56;8.82;;;4.20;;
26319;SDS011;14024;52.226;5.200;2023-07-16T11:42:22;9.68;;;3.63;;
26319;SDS011;14024;52.226;5.200;2023-07-16T11:44:49;8.30;;;4.18;;
26319;SDS011;14024;52.226;5.200;2023-07-16T11:47:15;11.25;;;4.07;;
26319;SDS011;14024;52.226;5.200;2023-07-16T11:49:41;11.45;;;4.18;;
26319;SDS011;14024;52.226;5.200;2023-07-16T11:52:07;10.05;;;4.32;;
26319;SDS011;14024;52.226;5.200;2023-07-16T11:54:33;8.00;;;3.70;;
26319;SDS011;14024;52.226;5.200;2023-07-16T11:56:59;15.57;;;4.28;;
26319;SDS011;14024;52.226;5.200;2023-07-16T11:59:25;8.45;;;3.85;;
26319;SDS011;14024;52.226;5.200;2023-07-16T12:01:51;11.70;;;3.88;;
26319;SDS011;14024;52.226;5.200;2023-07-16T12:04:18;12.35;;;4.55;;
26319;SDS011;14024;52.226;5.200;2023-07-16T12:06:45;8.27;;;4.45;;
26319;SDS011;14024;52.226;5.200;2023-07-16T12:09:11;9.02;;;3.97;;
26319;SDS011;14024;52.226;5.200;2023-07-16T12:11:37;12.48;;;4.43;;
26319;SDS011;14024;52.226;5.200;2023-07-16T12:14:04;8.10;;;3.85;;
26319;SDS011;14024;52.226;5.200;2023-07-16T12:16:30;8.68;;;4.13;;
26319;SDS011;14024;52.226;5.200;2023-07-16T12:18:56;9.88;;;4.00;;
26319;SDS011;14024;52.226;5.200;2023-07-16T12:21:22;9.70;;;4.47;;
26319;SDS011;14024;52.226;5.200;2023-07-16T12:23:48;9.90;;;3.85;;
26319;SDS011;14024;52.226;5.200;2023-07-16T12:26:14;13.02;;;3.90;;
26319;SDS011;14024;52.226;5.200;2023-07-16T12:28:40;7.40;;;3.85;;
26319;SDS011;14024;52.226;5.200;2023-07-16T12:31:06;10.82;;;3.92;;
26319;SDS011;14024;52.226;5.200;2023-07-16T12:33:32;7.03;;;3.40;;
26319;SDS011;14024;52.226;5.200;2023-07-16T12:35:58;7.50;;;4.18;;
26319;SDS011;14024;52.226;5.200;2023-07-16T12:38:24;7.85;;;3.70;;
26319;SDS011;14024;52.226;5.200;2023-07-16T12:40:50;13.00;;;3.90;;
26319;SDS011;14024;52.226;5.200;2023-07-16T12:43:16;8.32;;;3.67;;
26319;SDS011;14024;52.226;5.200;2023-07-16T12:45:42;11.50;;;3.72;;
26319;SDS011;14024;52.226;5.200;2023-07-16T12:48:08;12.75;;;4.13;;
26319;SDS011;14024;52.226;5.200;2023-07-16T12:50:34;8.68;;;3.35;;
26319;SDS011;14024;52.226;5.200;2023-07-16T12:53:00;7.93;;;3.40;;
26319;SDS011;14024;52.226;5.200;2023-07-16T12:55:26;8.57;;;3.97;;
26319;SDS011;14024;52.226;5.200;2023-07-16T12:57:52;8.98;;;3.90;;
26319;SDS011;14024;52.226;5.200;2023-07-16T13:00:18;7.57;;;3.33;;
26319;SDS011;14024;52.226;5.200;2023-07-16T13:02:44;5.97;;;3.08;;
26319;SDS011;14024;52.226;5.200;2023-07-16T13:05:10;16.02;;;3.65;;
26319;SDS011;14024;52.226;5.200;2023-07-16T13:07:36;9.43;;;3.03;;
26319;SDS011;14024;52.226;5.200;2023-07-16T13:10:02;7.32;;;2.95;;
26319;SDS011;14024;52.226;5.200;2023-07-16T13:12:29;11.82;;;3.25;;
26319;SDS011;14024;52.226;5.200;2023-07-16T13:14:55;7.85;;;2.90;;
26319;SDS011;14024;52.226;5.200;2023-07-16T13:17:21;7.65;;;3.20;;
26319;SDS011;14024;52.226;5.200;2023-07-16T13:19:47;12.23;;;3.30;;
26319;SDS011;14024;52.226;5.200;2023-07-16T13:22:13;7.30;;;3.10;;
26319;SDS011;14024;52.226;5.200;2023-07-16T13:24:39;12.65;;;3.05;;
26319;SDS011;14024;52.226;5.200;2023-07-16T13:27:05;10.95;;;3.40;;
26319;SDS011;14024;52.226;5.200;2023-07-16T13:29:31;10.05;;;3.50;;
26319;SDS011;14024;52.226;5.200;2023-07-16T13:31:57;10.45;;;2.88;;
26319;SDS011;14024;52.226;5.200;2023-07-16T13:34:23;7.45;;;2.40;;
26319;SDS011;14024;52.226;5.200;2023-07-16T13:36:49;6.72;;;2.60;;
26319;SDS011;14024;52.226;5.200;2023-07-16T13:39:15;11.55;;;3.15;;
26319;SDS011;14024;52.226;5.200;2023-07-16T13:41:42;7.75;;;2.58;;
26319;SDS011;14024;52.226;5.200;2023-07-16T13:44:08;7.50;;;2.10;;
26319;SDS011;14024;52.226;5.200;2023-07-16T13:46:34;7.63;;;2.40;;
26319;SDS011;14024;52.226;5.200;2023-07-16T13:49:02;10.00;;;2.70;;
26319;SDS011;14024;52.226;5.200;2023-07-16T13:51:28;8.80;;;2.80;;
26319;SDS011;14024;52.226;5.200;2023-07-16T13:53:54;10.18;;;2.30;;
26319;SDS011;14024;52.226;5.200;2023-07-16T13:56:20;10.48;;;2.50;;
26319;SDS011;14024;52.226;5.200;2023-07-16T13:58:46;9.63;;;2.80;;
26319;SDS011;14024;52.226;5.200;2023-07-16T14:01:12;11.60;;;2.55;;
26319;SDS011;14024;52.226;5.200;2023-07-16T14:03:38;12.20;;;2.90;;
26319;SDS011;14024;52.226;5.200;2023-07-16T14:06:04;7.88;;;2.60;;
26319;SDS011;14024;52.226;5.200;2023-07-16T14:08:30;8.00;;;2.78;;
26319;SDS011;14024;52.226;5.200;2023-07-16T14:10:58;6.22;;;2.60;;
26319;SDS011;14024;52.226;5.200;2023-07-16T14:13:24;11.52;;;2.60;;
26319;SDS011;14024;52.226;5.200;2023-07-16T14:15:51;10.10;;;2.75;;
26319;SDS011;14024;52.226;5.200;2023-07-16T14:18:17;7.75;;;2.45;;
26319;SDS011;14024;52.226;5.200;2023-07-16T14:20:43;9.38;;;2.50;;
26319;SDS011;14024;52.226;5.200;2023-07-16T14:23:09;10.80;;;2.55;;
26319;SDS011;14024;52.226;5.200;2023-07-16T14:25:35;11.45;;;3.17;;
26319;SDS011;14024;52.226;5.200;2023-07-16T14:28:01;9.27;;;2.90;;
26319;SDS011;14024;52.226;5.200;2023-07-16T14:30:27;7.07;;;2.25;;
26319;SDS011;14024;52.226;5.200;2023-07-16T14:32:53;7.55;;;2.42;;
26319;SDS011;14024;52.226;5.200;2023-07-16T14:35:19;7.38;;;2.20;;
26319;SDS011;14024;52.226;5.200;2023-07-16T14:37:45;8.25;;;2.10;;
26319;SDS011;14024;52.226;5.200;2023-07-16T14:40:12;7.15;;;1.95;;